Time;durP1;ratioP1;P1;durP2;ratioP2;P2;SDS_P1;SDS_P2;PMS_P1;PMS_P2;Temp;Humidity;BMP_temperature;BMP_pressure;BME280_temperature;BME280_humidity;BME280_pressure;Samples;Min_cycle;Max_cycle;Signal;HPM_P1;HPM_P2
2024/01/25 00:00:44;;;;;;;32.58;6.00;;;;;;;6.13;100.00;102908.25;5092128;28;20419;-79
2024/01/25 00:03:09;;;;;;;39.20;5.32;;;;;;;6.15;100.00;102917.84;5091769;28;20536;-79
2024/01/25 00:05:34;;;;;;;31.98;5.00;;;;;;;6.14;100.00;102904.69;5091859;28;20039;-79
2024/01/25 00:08:00;;;;;;;31.52;6.00;;;;;;;6.13;100.00;102902.97;5091152;28;20464;-79
2024/01/25 00:10:25;;;;;;;44.50;5.68;;;;;;;6.16;100.00;102908.13;5090630;28;20507;-79
2024/01/25 00:12:50;;;;;;;33.55;5.82;;;;;;;6.15;100.00;102899.34;5091063;28;20350;-79
2024/01/25 00:15:16;;;;;;;35.70;5.43;;;;;;;6.12;100.00;102895.94;5091226;28;20032;-78
2024/01/25 00:17:42;;;;;;;28.05;5.45;;;;;;;6.13;100.00;102897.69;5091518;28;20126;-78
2024/01/25 00:20:09;;;;;;;42.83;5.63;;;;;;;6.08;100.00;102897.00;5073322;28;20060;-78
2024/01/25 00:22:35;;;;;;;34.70;5.25;;;;;;;6.05;100.00;102894.50;5091200;28;20052;-77
2024/01/25 00:25:00;;;;;;;36.17;4.97;;;;;;;6.06;100.00;102882.97;5073178;28;20370;-78
2024/01/25 00:27:26;;;;;;;39.53;5.45;;;;;;;6.08;100.00;102883.81;5091226;28;20337;-79
2024/01/25 00:29:51;;;;;;;33.30;5.43;;;;;;;6.08;100.00;102889.94;5072847;28;20020;-78
2024/01/25 00:32:16;;;;;;;36.28;4.53;;;;;;;6.06;100.00;102889.16;5090862;28;20078;-77
2024/01/25 00:34:42;;;;;;;34.78;5.00;;;;;;;6.06;100.00;102889.16;5091390;28;20043;-78
2024/01/25 00:37:08;;;;;;;30.15;5.20;;;;;;;6.08;100.00;102883.81;5091002;28;20071;-78
2024/01/25 00:39:34;;;;;;;42.63;6.03;;;;;;;6.09;100.00;102896.06;5091322;28;20041;-79
2024/01/25 00:42:05;;;;;;;37.83;4.80;;;;;;;6.06;100.00;102893.56;5091636;28;20357;-78
2024/01/25 00:44:31;;;;;;;36.08;4.85;;;;;;;6.09;100.00;102880.22;5091291;28;20158;-78
2024/01/25 00:46:56;;;;;;;40.67;5.05;;;;;;;6.11;100.00;102894.25;5090945;28;20115;-79
2024/01/25 00:49:22;;;;;;;28.17;4.70;;;;;;;6.00;100.00;102908.75;5090957;28;20074;-79
2024/01/25 00:51:48;;;;;;;34.53;5.93;;;;;;;5.94;100.00;102898.38;5072932;28;20110;-79
2024/01/25 00:54:16;;;;;;;36.90;5.45;;;;;;;5.91;100.00;102889.69;5091022;28;20039;-78
2024/01/25 00:56:42;;;;;;;42.85;6.03;;;;;;;5.95;100.00;102881.56;5091228;28;20070;-77
2024/01/25 00:59:08;;;;;;;32.67;6.22;;;;;;;5.97;100.00;102892.13;5090989;28;20052;-80
2024/01/25 01:01:34;;;;;;;29.40;4.93;;;;;;;5.93;100.00;102903.72;5072820;28;20039;-79
2024/01/25 01:03:59;;;;;;;36.45;5.55;;;;;;;5.90;100.00;102895.91;5090721;28;20032;-80
2024/01/25 01:06:26;;;;;;;33.40;5.75;;;;;;;5.85;100.00;102895.22;5072631;28;20036;-79
2024/01/25 01:08:52;;;;;;;36.55;5.25;;;;;;;5.89;100.00;102905.59;5090526;28;20487;-79
2024/01/25 01:11:18;;;;;;;30.60;6.82;;;;;;;5.83;100.00;102921.69;5090778;28;20046;-80
2024/01/25 01:13:43;;;;;;;40.58;5.72;;;;;;;5.75;100.00;102926.41;5072169;28;20442;-80
2024/01/25 01:16:09;;;;;;;37.55;5.35;;;;;;;5.73;100.00;102928.22;5090639;28;20040;-80
2024/01/25 01:18:34;;;;;;;53.08;6.75;;;;;;;5.74;100.00;102925.53;5091052;28;20174;-80
2024/01/25 01:21:00;;;;;;;42.33;6.22;;;;;;;5.73;100.00;102937.03;5091413;28;20428;-79
2024/01/25 01:23:25;;;;;;;35.55;4.80;;;;;;;5.74;100.00;102943.16;5094775;28;20148;-79
2024/01/25 01:25:50;;;;;;;48.30;5.82;;;;;;;5.73;100.00;102944.06;5095371;28;20056;-79
2024/01/25 01:28:16;;;;;;;37.22;5.10;;;;;;;5.71;100.00;102943.28;5094573;28;20387;-80
2024/01/25 01:30:41;;;;;;;51.40;6.15;;;;;;;5.67;100.00;102949.59;5094347;28;20052;-80
2024/01/25 01:33:10;;;;;;;36.95;5.80;;;;;;;5.64;100.00;102959.34;5094992;28;20056;-80
2024/01/25 01:35:35;;;;;;;34.58;5.18;;;;;;;5.62;100.00;102966.44;5094469;28;20039;-79
2024/01/25 01:38:01;;;;;;;31.17;5.75;;;;;;;5.57;100.00;102957.84;5094459;28;20024;-81
2024/01/25 01:40:26;;;;;;;35.42;7.43;;;;;;;5.48;100.00;102964.31;5094503;28;20035;-79
2024/01/25 01:42:51;;;;;;;37.40;5.82;;;;;;;5.41;100.00;102978.63;5094651;28;20062;-79
2024/01/25 01:45:17;;;;;;;39.13;5.18;;;;;;;5.29;100.00;102979.91;5094464;28;20445;-79
2024/01/25 01:47:43;;;;;;;29.55;4.53;;;;;;;5.14;100.00;102974.31;5094426;28;20447;-78
2024/01/25 01:50:09;;;;;;;37.15;5.05;;;;;;;5.07;100.00;102986.84;5094568;28;20036;-80
2024/01/25 01:52:35;;;;;;;34.85;5.18;;;;;;;5.04;100.00;102989.56;5094595;28;20096;-80
2024/01/25 01:55:01;;;;;;;45.95;5.70;;;;;;;5.02;100.00;102983.50;5094268;28;20032;-78
2024/01/25 01:57:27;;;;;;;31.15;5.40;;;;;;;5.01;100.00;102997.59;5094277;28;20039;-80
2024/01/25 01:59:52;;;;;;;37.03;6.40;;;;;;;5.03;100.00;102988.72;5094675;28;20043;-81
2024/01/25 02:02:17;;;;;;;43.17;6.35;;;;;;;5.03;100.00;102990.47;5076319;28;20040;-79
2024/01/25 02:04:44;;;;;;;32.38;4.95;;;;;;;5.05;100.00;102978.13;5075713;28;20165;-79
2024/01/25 02:07:09;;;;;;;36.58;4.90;;;;;;;5.02;100.00;102986.97;5094013;28;20028;-80
2024/01/25 02:09:35;;;;;;;41.58;5.25;;;;;;;5.02;100.00;102989.63;5093800;28;20508;-79
2024/01/25 02:12:03;;;;;;;41.00;5.22;;;;;;;5.01;100.00;102984.41;5093723;28;20048;-80
2024/01/25 02:14:30;;;;;;;36.85;5.80;;;;;;;4.94;100.00;102973.16;5093642;28;20505;-80
2024/01/25 02:16:56;;;;;;;35.10;5.28;;;;;;;4.89;100.00;102975.09;5093818;28;20048;-79
2024/01/25 02:19:21;;;;;;;37.42;5.00;;;;;;;4.89;100.00;102975.97;5075761;28;20046;-79
2024/01/25 02:21:48;;;;;;;38.95;5.68;;;;;;;4.96;100.00;102971.38;5093450;28;20070;-79
2024/01/25 02:24:14;;;;;;;41.95;7.03;;;;;;;4.95;100.00;102975.75;5093574;28;20043;-80
2024/01/25 02:26:39;;;;;;;45.17;6.22;;;;;;;4.98;100.00;102976.59;5093242;28;20120;-80
2024/01/25 02:29:05;;;;;;;45.90;6.05;;;;;;;4.99;100.00;102968.63;5093359;28;20039;-79
2024/01/25 02:31:31;;;;;;;26.42;4.35;;;;;;;5.01;100.00;102964.16;5093070;28;20034;-80
2024/01/25 02:33:56;;;;;;;35.90;4.80;;;;;;;5.00;100.00;102972.09;5074827;28;20500;-80
2024/01/25 02:36:24;;;;;;;33.78;5.22;;;;;;;4.96;100.00;102974.00;5093267;28;20028;-80
2024/01/25 02:38:50;;;;;;;34.97;4.70;;;;;;;4.98;100.00;102976.59;5093154;28;20114;-81
2024/01/25 02:41:15;;;;;;;45.85;5.80;;;;;;;4.93;100.00;102974.09;5093300;28;20461;-79
2024/01/25 02:43:41;;;;;;;32.83;4.47;;;;;;;4.86;100.00;102976.06;5074933;28;20072;-78
2024/01/25 02:46:07;;;;;;;36.83;4.85;;;;;;;4.83;100.00;102977.94;5092852;28;20024;-80
2024/01/25 02:48:33;;;;;;;43.15;5.25;;;;;;;4.80;100.00;102978.91;5092817;28;20152;-80
2024/01/25 02:50:58;;;;;;;47.88;5.78;;;;;;;4.77;100.00;102987.75;5093786;28;20032;-80
2024/01/25 02:53:23;;;;;;;53.67;6.13;;;;;;;4.69;100.00;102992.44;5075091;28;20476;-80
2024/01/25 02:55:49;;;;;;;32.25;4.47;;;;;;;4.59;100.00;102985.72;5093057;28;20112;-80
2024/01/25 02:58:14;;;;;;;38.05;5.07;;;;;;;4.50;100.00;102992.13;5093016;28;20047;-80
2024/01/25 03:00:40;;;;;;;35.20;5.95;;;;;;;4.41;100.00;102997.69;5092642;28;20169;-79
2024/01/25 03:03:05;;;;;;;45.50;5.22;;;;;;;4.39;100.00;103002.16;5093042;28;20059;-78
2024/01/25 03:05:30;;;;;;;36.58;5.85;;;;;;;4.38;100.00;102996.00;5074152;28;20035;-80
2024/01/25 03:07:56;;;;;;;39.28;5.03;;;;;;;4.35;100.00;102996.09;5074475;28;20111;-80
2024/01/25 03:10:21;;;;;;;32.47;5.53;;;;;;;4.38;100.00;102984.59;5074169;28;20097;-80
2024/01/25 03:12:47;;;;;;;40.97;5.45;;;;;;;4.42;100.00;102994.16;5092646;28;20056;-80
2024/01/25 03:15:12;;;;;;;36.78;5.20;;;;;;;4.40;100.00;102993.31;5057568;28;20032;-80
2024/01/25 03:17:37;;;;;;;39.08;4.55;;;;;;;4.35;100.00;102993.47;5092642;28;20098;-80
2024/01/25 03:20:03;;;;;;;46.95;4.65;;;;;;;4.22;100.00;102997.38;5074122;28;20043;-80
2024/01/25 03:22:28;;;;;;;45.58;5.32;;;;;;;4.16;100.00;103002.81;5074581;28;20062;-80
2024/01/25 03:24:54;;;;;;;33.08;4.78;;;;;;;4.11;100.00;102997.69;5092481;28;20486;-80
2024/01/25 03:27:19;;;;;;;37.67;5.00;;;;;;;4.07;100.00;103003.94;5092355;28;20449;-80
2024/01/25 03:29:45;;;;;;;37.65;5.50;;;;;;;3.99;100.00;102998.03;5092330;28;20032;-80
2024/01/25 03:32:10;;;;;;;33.80;4.65;;;;;;;3.89;100.00;103003.53;5092467;28;20034;-79
2024/01/25 03:34:36;;;;;;;45.13;5.32;;;;;;;3.86;100.00;102997.50;5092388;28;20090;-80
2024/01/25 03:37:01;;;;;;;45.58;6.85;;;;;;;3.86;100.00;102997.50;5073727;28;20104;-80
2024/01/25 03:39:27;;;;;;;53.20;5.90;;;;;;;3.88;100.00;102995.69;5092118;28;20059;-80
2024/01/25 03:41:52;;;;;;;42.33;6.28;;;;;;;3.94;100.00;102995.53;5092103;28;20028;-80
2024/01/25 03:44:17;;;;;;;43.90;5.55;;;;;;;3.96;100.00;102998.13;5091133;28;20028;-79
2024/01/25 03:46:43;;;;;;;38.15;5.05;;;;;;;3.95;100.00;102993.75;5074022;28;20040;-79
2024/01/25 03:49:08;;;;;;;38.58;5.13;;;;;;;3.96;100.00;102988.44;5091905;28;20032;-80
2024/01/25 03:51:33;;;;;;;37.92;6.40;;;;;;;3.94;100.00;102992.03;5091992;28;20529;-79
2024/01/25 03:53:59;;;;;;;42.55;4.97;;;;;;;3.88;100.00;103001.84;5073474;28;20040;-80
2024/01/25 03:56:25;;;;;;;42.70;5.32;;;;;;;3.83;100.00;102997.59;5091618;28;20135;-79
2024/01/25 03:58:51;;;;;;;48.13;5.60;;;;;;;3.83;100.00;103001.09;5073549;28;20032;-80
2024/01/25 04:01:16;;;;;;;41.15;5.90;;;;;;;3.80;100.00;102995.91;5091768;28;20365;-79
2024/01/25 04:03:41;;;;;;;47.50;5.15;;;;;;;3.75;100.00;102989.03;5091707;28;20060;-79
2024/01/25 04:06:07;;;;;;;45.67;6.10;;;;;;;3.66;100.00;102993.66;5091832;28;20032;-79
2024/01/25 04:08:32;;;;;;;37.55;5.95;;;;;;;3.62;100.00;102997.28;5091466;28;20032;-79
2024/01/25 04:10:57;;;;;;;45.58;5.47;;;;;;;3.58;100.00;102998.25;5091776;28;20507;-79
2024/01/25 04:13:23;;;;;;;39.50;5.82;;;;;;;3.53;100.00;103000.16;5091203;28;20055;-79
2024/01/25 04:15:48;;;;;;;37.83;5.55;;;;;;;3.49;100.00;102993.22;5091462;28;20099;-79
2024/01/25 04:18:13;;;;;;;43.47;6.57;;;;;;;3.41;100.00;102993.44;5091431;28;20476;-79
2024/01/25 04:20:41;;;;;;;33.13;4.80;;;;;;;3.32;100.00;102991.91;5091196;28;20050;-79
2024/01/25 04:23:06;;;;;;;38.95;5.57;;;;;;;3.30;100.00;102999.00;5091361;28;20024;-79
2024/01/25 04:25:32;;;;;;;41.40;5.20;;;;;;;3.24;100.00;102995.63;5091402;28;20034;-79
2024/01/25 04:27:57;;;;;;;32.17;4.93;;;;;;;3.14;100.00;102985.34;5091206;28;20119;-79
2024/01/25 04:30:22;;;;;;;38.72;4.82;;;;;;;3.05;100.00;102989.97;5072909;28;20040;-79
2024/01/25 04:32:47;;;;;;;31.85;5.70;;;;;;;3.00;100.00;102990.94;5091867;28;20059;-79
2024/01/25 04:35:13;;;;;;;38.58;6.03;;;;;;;2.97;100.00;102992.78;5091467;28;20043;-79
2024/01/25 04:37:38;;;;;;;39.90;6.30;;;;;;;2.94;100.00;102996.38;5091314;28;20047;-79
2024/01/25 04:40:05;;;;;;;43.33;5.63;;;;;;;2.88;100.00;102993.88;5091299;28;20028;-79
2024/01/25 04:42:30;;;;;;;29.75;5.25;;;;;;;2.83;100.00;102986.06;5090881;28;20048;-79
2024/01/25 04:44:55;;;;;;;29.30;5.80;;;;;;;2.78;100.00;102984.47;5091350;28;20039;-79
2024/01/25 04:47:21;;;;;;;30.48;5.07;;;;;;;2.73;100.00;102991.59;5091153;28;20115;-79
2024/01/25 04:49:47;;;;;;;34.30;5.18;;;;;;;2.72;100.00;102995.16;5091224;28;20483;-79
2024/01/25 04:52:12;;;;;;;34.28;6.35;;;;;;;2.69;100.00;102998.69;5090967;28;20032;-79
2024/01/25 04:54:38;;;;;;;26.65;3.90;;;;;;;2.63;100.00;103001.47;5090862;28;20033;-79
2024/01/25 04:57:06;;;;;;;37.35;5.43;;;;;;;2.57;100.00;102991.09;5095252;28;20525;-79
2024/01/25 04:59:32;;;;;;;33.20;4.53;;;;;;;2.51;100.00;102975.44;5095171;28;20123;-80
2024/01/25 05:01:58;;;;;;;40.00;5.97;;;;;;;2.49;100.00;102979.88;5094898;28;20035;-79
2024/01/25 05:04:23;;;;;;;32.25;5.00;;;;;;;2.46;100.00;102984.31;5076509;28;20036;-79
2024/01/25 05:06:48;;;;;;;43.35;5.25;;;;;;;2.47;100.00;102988.66;5095155;28;20119;-79
2024/01/25 05:09:14;;;;;;;34.40;5.20;;;;;;;2.49;100.00;102993.03;5076893;28;20031;-79
2024/01/25 05:11:40;;;;;;;40.85;5.20;;;;;;;2.52;100.00;103000.84;5076679;28;20055;-79
2024/01/25 05:14:05;;;;;;;35.85;6.05;;;;;;;2.50;100.00;103008.75;5094658;28;20161;-79
2024/01/25 05:16:31;;;;;;;37.75;5.47;;;;;;;2.49;100.00;103017.53;5076756;28;20111;-79
2024/01/25 05:18:56;;;;;;;36.40;4.85;;;;;;;2.49;100.00;103017.53;5095184;28;20099;-79
2024/01/25 05:21:22;;;;;;;39.17;7.20;;;;;;;2.51;100.00;103020.13;5094529;28;20020;-79
2024/01/25 05:23:47;;;;;;;36.30;5.70;;;;;;;2.52;100.00;103027.13;5075983;28;20110;-79
2024/01/25 05:26:12;;;;;;;37.38;5.28;;;;;;;2.50;100.00;103040.28;5076331;28;20119;-79
2024/01/25 05:28:38;;;;;;;37.88;4.90;;;;;;;2.50;100.00;103039.44;5094283;28;20111;-79
2024/01/25 05:31:03;;;;;;;34.53;5.22;;;;;;;2.45;100.00;103039.53;5094643;28;20058;-79
2024/01/25 05:33:29;;;;;;;38.95;5.75;;;;;;;2.34;100.00;103028.38;5094387;28;20086;-79
2024/01/25 05:35:54;;;;;;;32.03;4.75;;;;;;;2.23;100.00;103031.22;5075518;28;20059;-79
2024/01/25 05:38:19;;;;;;;27.25;5.38;;;;;;;2.17;100.00;103020.84;5094427;28;20437;-79
2024/01/25 05:40:45;;;;;;;33.35;4.20;;;;;;;2.15;100.00;103023.50;5094246;28;20454;-79
2024/01/25 05:43:10;;;;;;;27.35;4.88;;;;;;;2.11;100.00;103014.81;5093890;28;20524;-79
2024/01/25 05:45:35;;;;;;;29.13;5.40;;;;;;;2.06;100.00;103011.44;5094179;28;20028;-79
2024/01/25 05:48:01;;;;;;;47.63;6.82;;;;;;;2.03;100.00;103011.50;5094165;28;20028;-79
2024/01/25 05:50:26;;;;;;;22.55;3.83;;;;;;;1.96;100.00;103016.88;5094145;28;20028;-79
2024/01/25 05:52:51;;;;;;;25.15;4.25;;;;;;;1.85;100.00;103031.09;5094461;28;20139;-79
2024/01/25 05:55:17;;;;;;;36.63;5.00;;;;;;;1.78;100.00;103024.22;5094047;28;20035;-79
2024/01/25 05:57:46;;;;;;;25.55;4.78;;;;;;;1.73;100.00;103031.28;5093976;28;20036;-79
2024/01/25 06:00:13;;;;;;;27.38;4.95;;;;;;;1.75;100.00;103029.53;5076362;28;20040;-79
2024/01/25 06:02:38;;;;;;;51.50;6.18;;;;;;;1.80;100.00;103032.06;5094112;28;20035;-79
2024/01/25 06:05:04;;;;;;;48.90;7.47;;;;;;;1.86;100.00;103039.81;5093685;28;20028;-79
2024/01/25 06:07:29;;;;;;;33.13;5.60;;;;;;;1.84;100.00;103042.47;5093010;28;20395;-79
2024/01/25 06:09:55;;;;;;;36.58;5.10;;;;;;;1.79;100.00;103049.56;5093495;28;20028;-79
2024/01/25 06:12:20;;;;;;;30.05;5.68;;;;;;;1.71;100.00;103047.06;5093769;28;20457;-79
2024/01/25 06:14:46;;;;;;;24.58;4.78;;;;;;;1.65;100.00;103041.94;5093533;28;20357;-79
2024/01/25 06:17:11;;;;;;;31.67;5.30;;;;;;;1.66;100.00;103025.31;5075316;28;20082;-79
2024/01/25 06:19:37;;;;;;;20.52;4.35;;;;;;;1.65;100.00;103014.84;5093685;28;20034;-79
2024/01/25 06:22:02;;;;;;;34.75;4.95;;;;;;;1.63;100.00;103017.50;5094002;28;20036;-79
2024/01/25 06:24:28;;;;;;;40.80;5.43;;;;;;;1.63;100.00;103022.75;5093814;28;20080;-79
2024/01/25 06:26:53;;;;;;;29.42;4.57;;;;;;;1.57;100.00;103039.47;5093532;28;20054;-80
2024/01/25 06:29:19;;;;;;;32.17;5.45;;;;;;;1.53;100.00;103031.66;5093606;28;20051;-79
2024/01/25 06:31:45;;;;;;;30.15;4.53;;;;;;;1.48;100.00;103042.25;5093479;28;20043;-79
2024/01/25 06:34:10;;;;;;;26.88;4.63;;;;;;;1.45;100.00;103038.78;5093916;28;20516;-79
2024/01/25 06:36:36;;;;;;;30.83;5.65;;;;;;;1.41;100.00;103030.97;5093227;28;20127;-78
2024/01/25 06:39:04;;;;;;;30.73;5.28;;;;;;;1.44;100.00;103029.22;5093534;28;20032;-78
2024/01/25 06:41:29;;;;;;;29.98;6.13;;;;;;;1.49;100.00;103027.34;5093131;28;20106;-78
2024/01/25 06:43:55;;;;;;;35.55;4.95;;;;;;;1.52;100.00;103022.06;5092577;28;20032;-78
2024/01/25 06:46:20;;;;;;;42.70;5.78;;;;;;;1.51;100.00;103020.34;5092663;28;20066;-79
2024/01/25 06:48:46;;;;;;;38.97;5.95;;;;;;;1.49;100.00;103025.59;5092801;28;20128;-81
2024/01/25 06:51:11;;;;;;;40.83;5.97;;;;;;;1.48;100.00;103034.38;5092887;28;20111;-78
2024/01/25 06:53:36;;;;;;;41.90;6.32;;;;;;;1.49;100.00;103029.97;5093379;28;20115;-79
2024/01/25 06:56:02;;;;;;;28.48;5.20;;;;;;;1.54;100.00;103033.41;5092971;28;20107;-81
2024/01/25 06:58:27;;;;;;;36.95;5.20;;;;;;;1.53;100.00;103029.91;5092998;28;20067;-79
2024/01/25 07:00:52;;;;;;;37.65;6.57;;;;;;;1.60;100.00;103030.66;5092739;28;20036;-78
2024/01/25 07:03:18;;;;;;;45.08;6.57;;;;;;;1.71;100.00;103025.22;5092519;28;20028;-79
2024/01/25 07:05:44;;;;;;;38.85;6.68;;;;;;;1.78;100.00;103024.22;5074422;28;20085;-81
2024/01/25 07:08:13;;;;;;;37.42;5.65;;;;;;;1.85;100.00;103033.72;5073955;28;20032;-80
2024/01/25 07:10:41;;;;;;;45.00;7.32;;;;;;;1.88;100.00;103040.66;5092185;28;20101;-80
2024/01/25 07:13:06;;;;;;;49.70;7.75;;;;;;;1.89;100.00;103058.13;5069861;28;20052;-80
2024/01/25 07:15:32;;;;;;;39.78;6.47;;;;;;;1.89;100.00;103068.66;5072109;28;20481;-80
2024/01/25 07:17:57;;;;;;;37.90;6.85;;;;;;;1.89;100.00;103066.03;5070196;28;20040;-79
2024/01/25 07:20:22;;;;;;;37.95;7.10;;;;;;;1.92;100.00;103071.22;5071599;28;20106;-80
2024/01/25 07:22:48;;;;;;;28.00;6.22;;;;;;;1.93;100.00;103049.31;5071765;28;20147;-80
2024/01/25 07:25:14;;;;;;;55.78;8.13;;;;;;;1.96;100.00;103046.63;5072102;28;20151;-79
2024/01/25 07:27:39;;;;;;;45.42;6.85;;;;;;;2.00;100.00;103050.94;5072393;28;20048;-80
2024/01/25 07:30:05;;;;;;;38.65;6.65;;;;;;;2.07;100.00;103043.78;5072044;28;20032;-80
2024/01/25 07:32:32;;;;;;;52.03;7.72;;;;;;;2.08;100.00;103049.00;5071730;28;20032;-79
2024/01/25 07:34:57;;;;;;;38.30;6.75;;;;;;;2.06;100.00;103049.94;5071688;28;20068;-80
2024/01/25 07:37:23;;;;;;;45.42;6.97;;;;;;;2.00;100.00;103052.69;5070451;28;20101;-79
2024/01/25 07:39:48;;;;;;;37.85;6.00;;;;;;;1.91;100.00;103051.09;5071905;28;20032;-80
2024/01/25 07:42:14;;;;;;;40.60;7.10;;;;;;;1.86;100.00;103060.81;5071621;28;20052;-80
2024/01/25 07:44:39;;;;;;;40.38;7.30;;;;;;;1.87;100.00;103065.19;5071730;28;20457;-79
2024/01/25 07:47:04;;;;;;;29.75;6.20;;;;;;;1.90;100.00;103070.38;5071619;28;20334;-79
2024/01/25 07:49:30;;;;;;;36.67;6.57;;;;;;;1.95;100.00;103055.41;5070454;28;20038;-79
2024/01/25 07:51:59;;;;;;;41.40;6.45;;;;;;;1.96;100.00;103056.25;5071488;28;20065;-80
2024/01/25 07:54:24;;;;;;;51.83;7.90;;;;;;;2.03;100.00;103053.50;5070103;28;20126;-80
2024/01/25 07:56:50;;;;;;;55.72;8.30;;;;;;;2.10;100.00;103031.44;5071848;28;20044;-79
2024/01/25 07:59:15;;;;;;;37.42;6.55;;;;;;;2.18;100.00;103033.06;5071413;28;20036;-79
2024/01/25 08:01:41;;;;;;;36.78;6.53;;;;;;;2.23;100.00;103034.72;5071163;28;20060;-79
2024/01/25 08:04:06;;;;;;;49.22;7.97;;;;;;;2.29;100.00;103031.09;5071563;28;20028;-79
2024/01/25 08:06:31;;;;;;;44.67;7.35;;;;;;;2.37;100.00;103036.19;5071282;28;20033;-79
2024/01/25 08:08:57;;;;;;;38.42;7.10;;;;;;;2.46;100.00;103030.72;5071281;28;20144;-79
2024/01/25 08:11:23;;;;;;;48.08;8.05;;;;;;;2.55;100.00;103033.16;5071543;28;20039;-79
2024/01/25 08:13:49;;;;;;;46.15;7.28;;;;;;;2.63;100.00;103023.34;5089385;28;20153;-80
2024/01/25 08:16:19;;;;;;;33.25;7.70;;;;;;;2.69;100.00;103026.72;5091488;28;20468;-79
2024/01/25 08:18:47;;;;;;;40.90;6.90;;;;;;;2.75;100.00;103042.41;5091540;28;20383;-80
2024/01/25 08:21:13;;;;;;;43.53;7.90;;;;;;;2.78;100.00;103043.19;5091480;28;20043;-79
2024/01/25 08:23:39;;;;;;;44.35;7.80;;;;;;;2.82;100.00;103044.84;5091967;28;20116;-80
2024/01/25 08:26:05;;;;;;;40.13;7.28;;;;;;;2.87;100.00;103059.66;5090955;28;20032;-80
2024/01/25 08:28:30;;;;;;;55.63;8.98;;;;;;;2.89;100.00;103052.59;5091558;28;20519;-81
2024/01/25 08:30:55;;;;;;;53.20;8.15;;;;;;;2.91;100.00;103053.41;5090948;28;20332;-80
2024/01/25 08:33:21;;;;;;;54.95;8.80;;;;;;;2.96;100.00;103055.03;5091440;28;20462;-80
2024/01/25 08:35:46;;;;;;;42.50;8.60;;;;;;;3.03;100.00;103058.41;5072791;28;20036;-80
2024/01/25 08:38:12;;;;;;;56.55;9.48;;;;;;;3.10;100.00;103062.59;5091149;28;20115;-80
2024/01/25 08:40:37;;;;;;;54.80;8.65;;;;;;;3.18;100.00;103055.41;5091125;28;20391;-80
2024/01/25 08:43:04;;;;;;;58.63;9.05;;;;;;;3.26;100.00;103054.38;5091460;28;20036;-80
2024/01/25 08:45:30;;;;;;;53.70;8.95;;;;;;;3.31;100.00;103047.22;5090965;28;20036;-80
2024/01/25 08:47:55;;;;;;;42.50;7.85;;;;;;;3.38;100.00;103063.72;5090929;28;20030;-80
2024/01/25 08:50:21;;;;;;;50.15;8.10;;;;;;;3.45;100.00;103054.75;5091613;28;20517;-81
2024/01/25 08:52:47;;;;;;;43.33;8.43;;;;;;;3.47;100.00;103045.91;5072984;28;20032;-80
2024/01/25 08:55:13;;;;;;;54.95;9.00;;;;;;;3.54;100.00;103049.28;5072729;28;20093;-80
2024/01/25 08:57:40;;;;;;;63.22;9.63;;;;;;;3.63;100.00;103053.44;5090670;28;20422;-81
2024/01/25 09:00:12;;;;;;;55.65;8.60;;;;;;;3.75;100.00;103039.94;5090378;28;20452;-81
2024/01/25 09:02:38;;;;;;;47.00;9.52;;;;;;;3.89;100.00;103048.31;5090983;28;20024;-81
2024/01/25 09:05:08;;;;;;;47.00;8.82;;;;;;;4.02;100.00;103034.84;5072198;28;20036;-80
2024/01/25 09:07:34;;;;;;;46.58;8.15;;;;;;;4.08;100.00;103041.72;5090552;28;20408;-81
2024/01/25 09:09:59;;;;;;;51.83;8.70;;;;;;;4.13;100.00;103035.38;5090643;28;20055;-81
2024/01/25 09:12:24;;;;;;;31.40;7.68;;;;;;;4.17;100.00;103031.75;5090554;28;20372;-80
2024/01/25 09:14:50;;;;;;;59.17;10.05;;;;;;;4.23;100.00;103028.09;5090417;28;20503;-81
2024/01/25 09:17:21;;;;;;;45.15;8.13;;;;;;;4.28;100.00;103018.25;5072010;28;20396;-81
2024/01/25 09:19:53;;;;;;;51.35;9.00;;;;;;;4.37;100.00;103020.66;5090854;28;20452;-81
2024/01/25 09:22:19;;;;;;;46.05;8.77;;;;;;;4.40;100.00;103014.41;5090842;28;20024;-81
2024/01/25 09:24:45;;;;;;;46.80;7.90;;;;;;;4.43;100.00;103010.81;5090773;28;20036;-81
2024/01/25 09:27:11;;;;;;;40.53;7.85;;;;;;;4.45;100.00;103023.06;5090580;28;20032;-81
2024/01/25 09:29:38;;;;;;;61.28;8.48;;;;;;;4.49;100.00;103024.66;5091060;28;20421;-81
2024/01/25 09:32:04;;;;;;;45.63;8.43;;;;;;;4.53;100.00;103014.91;5090732;28;20463;-82
2024/01/25 09:34:29;;;;;;;40.47;7.45;;;;;;;4.55;100.00;103008.69;5090903;28;20050;-80
2024/01/25 09:36:55;;;;;;;47.22;9.15;;;;;;;4.61;100.00;103017.31;5090904;28;20486;-81
2024/01/25 09:39:20;;;;;;;42.83;7.35;;;;;;;4.66;100.00;103023.28;5072342;28;20127;-81
2024/01/25 09:41:46;;;;;;;53.92;7.38;;;;;;;4.72;100.00;103012.59;5090871;28;20134;-80
2024/01/25 09:44:11;;;;;;;52.20;8.43;;;;;;;4.81;100.00;103017.56;5094419;28;20036;-81
2024/01/25 09:46:37;;;;;;;41.13;6.82;;;;;;;4.83;100.00;103013.09;5075916;28;20101;-80
2024/01/25 09:49:03;;;;;;;38.60;7.57;;;;;;;4.88;100.00;103007.66;5076033;28;20028;-79
2024/01/25 09:51:37;;;;;;;41.15;6.97;;;;;;;4.91;100.00;103011.09;5094348;28;20439;-80
2024/01/25 09:54:03;;;;;;;36.25;6.30;;;;;;;4.91;100.00;103004.94;5094349;28;20032;-80
2024/01/25 09:56:32;;;;;;;39.45;6.50;;;;;;;4.95;100.00;102999.50;5093960;28;20352;-80
2024/01/25 09:58:58;;;;;;;64.85;8.75;;;;;;;4.99;100.00;103004.72;5094387;28;20039;-80
2024/01/25 10:01:24;;;;;;;49.88;8.43;;;;;;;5.05;100.00;103005.34;5093670;28;20032;-79
2024/01/25 10:03:50;;;;;;;44.65;8.27;;;;;;;5.08;100.00;102993.84;5094295;28;20138;-80
2024/01/25 10:06:16;;;;;;;39.83;8.75;;;;;;;5.15;100.00;102992.72;5093690;28;20032;-80
2024/01/25 10:08:42;;;;;;;37.85;8.02;;;;;;;5.23;100.00;102992.47;5093834;28;20032;-78
2024/01/25 10:11:14;;;;;;;57.97;8.88;;;;;;;5.27;100.00;102991.47;5093385;28;20042;-77
2024/01/25 10:13:43;;;;;;;53.92;9.00;;;;;;;5.37;100.00;102992.00;5093996;28;20409;-80
2024/01/25 10:16:13;;;;;;;45.33;8.10;;;;;;;5.40;100.00;102986.59;5093474;28;20074;-79
2024/01/25 10:18:40;;;;;;;32.55;7.60;;;;;;;5.46;100.00;102994.31;5093585;28;20540;-80
2024/01/25 10:21:06;;;;;;;51.05;8.73;;;;;;;5.48;100.00;102989.84;5093527;28;20146;-78
2024/01/25 10:23:31;;;;;;;40.30;7.05;;;;;;;5.54;100.00;102988.75;5094038;28;20063;-80
2024/01/25 10:25:57;;;;;;;41.15;7.90;;;;;;;5.59;100.00;102997.41;5093406;28;20032;-79
2024/01/25 10:28:25;;;;;;;42.85;7.95;;;;;;;5.65;100.00;102994.53;5092991;28;20058;-79
2024/01/25 10:30:50;;;;;;;37.25;8.27;;;;;;;5.71;100.00;103010.16;5093736;28;20104;-79
2024/01/25 10:33:17;;;;;;;32.58;8.07;;;;;;;5.67;100.00;103008.53;5093332;28;20114;-78
2024/01/25 10:35:45;;;;;;;49.88;7.82;;;;;;;5.68;100.00;102999.72;5093557;28;20028;-78
2024/01/25 10:38:11;;;;;;;40.10;7.40;;;;;;;5.72;100.00;103003.09;5093329;28;20032;-79
2024/01/25 10:40:38;;;;;;;36.47;9.60;;;;;;;5.72;100.00;103003.97;5093083;28;20028;-79
2024/01/25 10:43:05;;;;;;;42.08;7.07;;;;;;;5.68;100.00;103001.50;5093179;28;20483;-79
2024/01/25 10:45:30;;;;;;;40.20;7.13;;;;;;;5.67;100.00;103000.63;5074566;28;20154;-79
2024/01/25 10:47:56;;;;;;;45.22;7.50;;;;;;;5.69;100.00;102980.31;5092751;28;20024;-80
2024/01/25 10:50:21;;;;;;;40.63;7.18;;;;;;;5.69;100.00;102971.50;5092788;28;20028;-80
2024/01/25 10:52:47;;;;;;;37.55;8.40;;;;;;;5.67;100.00;102973.34;5074366;28;20173;-81
2024/01/25 10:55:14;;;;;;;40.22;7.53;;;;;;;5.65;100.00;102963.69;5092693;28;20039;-78
2024/01/25 10:57:44;;;;;;;35.17;7.90;;;;;;;5.68;100.00;102964.53;5092864;28;20138;-78
2024/01/25 11:00:12;;;;;;;47.15;7.88;;;;;;;5.72;100.00;102960.81;5092614;28;20036;-78
2024/01/25 11:02:39;;;;;;;48.20;8.18;;;;;;;5.73;100.00;102966.09;5092545;28;20028;-77
2024/01/25 11:05:14;;;;;;;45.78;8.20;;;;;;;5.75;100.00;102956.31;5074602;28;20042;-77
2024/01/25 11:07:47;;;;;;;46.85;9.25;;;;;;;5.75;100.00;102951.03;5092234;28;20375;-80
2024/01/25 11:10:18;;;;;;;40.85;7.70;;;;;;;5.78;100.00;102956.19;5092542;28;20070;-78